Waimanalo, HI (96795)

3:36 AM HST on August 29, 2015 (GMT -1000)
Kailua | | Change Station
CLOSE
Current Station
Personal Weather Station
Location: Kailua, HI
Elevation: 12 ft
Nearby Weather Stations

Elev 12 ft 21.37 °N, 157.74 °W | Updated 15 minutes ago

Scattered Clouds
Scattered Clouds
77.9 °F
Feels Like 80 °F
N
0.0
Wind Variable Wind from SE
Gusts 1.0 mph

Today
High -- | Low -- °F
--% Chance of Precip.
Yesterday
High -- | Low -- °F
Precip. -- in
6:13 AM 6:49 PM
Full, 100% visible
Pressure 29.84 in
Visibility -9999.0 miles
Clouds Scattered Clouds 2300 ft
Heat Index 80 °F
Dew Point 75 °F
Humidity 90%
Rainfall 0.00 in
Snow Depth Not available.
UV 0 out of 12
Pollen Not available.
Air Quality Not available.
Flu Activity Not available.
METAR PHNG 291257Z AUTO 00000KT SCT023 26/22 A2985 RMK AO2 SLP104 T02610222 $
Pressure 29.84 in
Visibility -9999.0 miles
Clouds Scattered Clouds 2300 ft
Heat Index 80 °F
Dew Point 75 °F
Humidity 90%
Rainfall 0.00 in
Snow Depth Not available.
UV 0 out of 12
Pollen Not available.
Air Quality Not available.
Flu Activity Not available.
METAR PHNG 291257Z AUTO 00000KT SCT023 26/22 A2985 RMK AO2 SLP104 T02610222 $
The busy hurricane season continues as Hurricane Ignacio may threaten The Big Island Monday. Ignacio is expected to strengthen into a Category 2 hurricane later today, before possibly weakening to a Category 1 storm Monday. The most likely scenario is that storm will pass to the north of Hawaii, there is enough difference is guidance to suggest that residents should prepare for the storm.

10-Day Weather Forecast

×

Almanac

Astronomy

Aug. 29, 2015 Rise Set
Actual Time
Civil Twilight
Nautical Twilight
Astronomical Twilight
Moon
Length of Visible Light
Length of Day
Tomorrow will be .
, % of the Moon is Illuminated

Today's Extremes

State Highs State Lows

Community

WunderPhotos

Upload Photos

1,850,686 photos uploaded!

WunderBlogs® & News

Nearby

Air Quality

  Air Quality AQ Index Pollutant
Not available.

Snow Depth

Station Depth Elevation

Earthquake Activity

City Distance Mag. Time & Date
Minimum magnitude displayed is 2.5.

Coastal Water Temperatures

Place Temperature

Stations

Nearby Weather Stations

Station Location Temp. Windchill Dew Point Humidity Wind Precip. Elev Updated Type